sensor_id;sensor_type;location;lat;lon;timestamp;P1;durP1;ratioP1;P2;durP2;ratioP2
44822;SDS011;51097;51.984;5.650;2022-12-07T00:03:41;14.30;;;11.77;;
44822;SDS011;51097;51.984;5.650;2022-12-07T00:06:09;17.77;;;13.82;;
44822;SDS011;51097;51.984;5.650;2022-12-07T00:08:36;14.05;;;12.55;;
44822;SDS011;51097;51.984;5.650;2022-12-07T00:11:02;13.68;;;12.27;;
44822;SDS011;51097;51.984;5.650;2022-12-07T00:13:36;15.95;;;11.43;;
44822;SDS011;51097;51.984;5.650;2022-12-07T00:16:04;14.43;;;11.30;;
44822;SDS011;51097;51.984;5.650;2022-12-07T00:18:41;12.90;;;11.38;;
44822;SDS011;51097;51.984;5.650;2022-12-07T00:21:18;14.18;;;12.25;;
44822;SDS011;51097;51.984;5.650;2022-12-07T00:23:45;13.73;;;11.38;;
44822;SDS011;51097;51.984;5.650;2022-12-07T00:26:13;15.65;;;11.82;;
44822;SDS011;51097;51.984;5.650;2022-12-07T00:28:39;13.48;;;11.43;;
44822;SDS011;51097;51.984;5.650;2022-12-07T00:31:05;13.20;;;10.85;;
44822;SDS011;51097;51.984;5.650;2022-12-07T00:33:36;12.70;;;11.38;;
44822;SDS011;51097;51.984;5.650;2022-12-07T00:36:03;15.13;;;10.82;;
44822;SDS011;51097;51.984;5.650;2022-12-07T00:38:32;12.30;;;9.50;;
44822;SDS011;51097;51.984;5.650;2022-12-07T00:41:00;13.07;;;10.90;;
44822;SDS011;51097;51.984;5.650;2022-12-07T00:43:27;14.18;;;10.50;;
44822;SDS011;51097;51.984;5.650;2022-12-07T00:45:53;11.15;;;9.43;;
44822;SDS011;51097;51.984;5.650;2022-12-07T00:48:20;13.65;;;11.18;;
44822;SDS011;51097;51.984;5.650;2022-12-07T00:50:46;13.15;;;11.25;;
44822;SDS011;51097;51.984;5.650;2022-12-07T00:53:12;9.60;;;8.45;;
44822;SDS011;51097;51.984;5.650;2022-12-07T00:55:38;11.07;;;9.80;;
44822;SDS011;51097;51.984;5.650;2022-12-07T00:58:04;12.77;;;10.63;;
44822;SDS011;51097;51.984;5.650;2022-12-07T01:00:30;13.35;;;10.68;;
44822;SDS011;51097;51.984;5.650;2022-12-07T01:02:56;13.65;;;10.75;;
44822;SDS011;51097;51.984;5.650;2022-12-07T01:05:21;13.07;;;11.15;;
44822;SDS011;51097;51.984;5.650;2022-12-07T01:07:47;10.70;;;9.60;;
44822;SDS011;51097;51.984;5.650;2022-12-07T01:10:13;10.48;;;8.93;;
44822;SDS011;51097;51.984;5.650;2022-12-07T01:12:39;12.38;;;10.05;;
44822;SDS011;51097;51.984;5.650;2022-12-07T01:15:05;11.75;;;10.60;;
44822;SDS011;51097;51.984;5.650;2022-12-07T01:17:32;12.18;;;10.35;;
44822;SDS011;51097;51.984;5.650;2022-12-07T01:19:58;12.35;;;9.15;;
44822;SDS011;51097;51.984;5.650;2022-12-07T01:22:23;10.25;;;8.98;;
44822;SDS011;51097;51.984;5.650;2022-12-07T01:24:49;13.50;;;10.40;;
44822;SDS011;51097;51.984;5.650;2022-12-07T01:27:14;10.73;;;9.63;;
44822;SDS011;51097;51.984;5.650;2022-12-07T01:29:40;11.02;;;9.95;;
44822;SDS011;51097;51.984;5.650;2022-12-07T01:32:05;9.93;;;8.95;;
44822;SDS011;51097;51.984;5.650;2022-12-07T01:34:31;9.77;;;8.60;;
44822;SDS011;51097;51.984;5.650;2022-12-07T01:36:57;9.73;;;8.60;;
44822;SDS011;51097;51.984;5.650;2022-12-07T01:39:22;10.63;;;9.23;;
44822;SDS011;51097;51.984;5.650;2022-12-07T01:41:48;13.23;;;11.68;;
44822;SDS011;51097;51.984;5.650;2022-12-07T01:44:19;12.68;;;10.70;;
44822;SDS011;51097;51.984;5.650;2022-12-07T01:46:46;12.77;;;10.23;;
44822;SDS011;51097;51.984;5.650;2022-12-07T01:51:50;12.57;;;10.18;;
44822;SDS011;51097;51.984;5.650;2022-12-07T01:54:20;10.48;;;8.95;;
44822;SDS011;51097;51.984;5.650;2022-12-07T01:56:51;12.88;;;10.52;;
44822;SDS011;51097;51.984;5.650;2022-12-07T01:59:19;11.52;;;9.50;;
44822;SDS011;51097;51.984;5.650;2022-12-07T02:01:49;10.25;;;9.25;;
44822;SDS011;51097;51.984;5.650;2022-12-07T02:04:15;10.95;;;9.88;;
44822;SDS011;51097;51.984;5.650;2022-12-07T02:06:41;11.73;;;10.18;;
44822;SDS011;51097;51.984;5.650;2022-12-07T02:09:07;10.77;;;8.48;;
44822;SDS011;51097;51.984;5.650;2022-12-07T02:11:33;10.32;;;8.82;;
44822;SDS011;51097;51.984;5.650;2022-12-07T02:13:59;13.40;;;9.65;;
44822;SDS011;51097;51.984;5.650;2022-12-07T02:25:20;12.35;;;9.75;;
44822;SDS011;51097;51.984;5.650;2022-12-07T02:30:40;13.77;;;8.45;;
44822;SDS011;51097;51.984;5.650;2022-12-07T02:41:19;8.25;;;7.10;;
44822;SDS011;51097;51.984;5.650;2022-12-07T02:43:50;8.90;;;8.00;;
44822;SDS011;51097;51.984;5.650;2022-12-07T02:46:29;9.80;;;7.53;;
44822;SDS011;51097;51.984;5.650;2022-12-07T02:49:00;10.43;;;7.65;;
44822;SDS011;51097;51.984;5.650;2022-12-07T02:51:46;8.32;;;7.32;;
44822;SDS011;51097;51.984;5.650;2022-12-07T02:54:17;9.68;;;6.97;;
44822;SDS011;51097;51.984;5.650;2022-12-07T02:59:14;9.25;;;7.68;;
44822;SDS011;51097;51.984;5.650;2022-12-07T03:01:58;9.50;;;7.28;;
44822;SDS011;51097;51.984;5.650;2022-12-07T03:10:42;11.48;;;6.65;;
44822;SDS011;51097;51.984;5.650;2022-12-07T03:16:05;8.30;;;6.60;;
44822;SDS011;51097;51.984;5.650;2022-12-07T03:18:56;8.05;;;6.47;;
44822;SDS011;51097;51.984;5.650;2022-12-07T03:21:32;8.40;;;6.55;;
44822;SDS011;51097;51.984;5.650;2022-12-07T03:24:03;9.80;;;6.78;;
44822;SDS011;51097;51.984;5.650;2022-12-07T03:26:38;8.32;;;6.85;;
44822;SDS011;51097;51.984;5.650;2022-12-07T03:29:09;8.82;;;6.45;;
44822;SDS011;51097;51.984;5.650;2022-12-07T03:31:41;12.32;;;7.40;;
44822;SDS011;51097;51.984;5.650;2022-12-07T03:34:13;13.10;;;6.95;;
44822;SDS011;51097;51.984;5.650;2022-12-07T03:36:55;7.18;;;6.38;;
44822;SDS011;51097;51.984;5.650;2022-12-07T03:39:28;16.15;;;7.22;;
44822;SDS011;51097;51.984;5.650;2022-12-07T03:42:04;7.60;;;6.32;;
44822;SDS011;51097;51.984;5.650;2022-12-07T03:44:31;8.30;;;7.50;;
44822;SDS011;51097;51.984;5.650;2022-12-07T03:49:51;8.27;;;6.35;;
44822;SDS011;51097;51.984;5.650;2022-12-07T03:52:24;10.15;;;6.90;;
44822;SDS011;51097;51.984;5.650;2022-12-07T03:55:01;8.48;;;7.13;;
44822;SDS011;51097;51.984;5.650;2022-12-07T03:57:33;8.65;;;7.35;;
44822;SDS011;51097;51.984;5.650;2022-12-07T04:00:00;13.05;;;8.35;;
44822;SDS011;51097;51.984;5.650;2022-12-07T04:02:28;9.65;;;6.88;;
44822;SDS011;51097;51.984;5.650;2022-12-07T04:04:54;7.55;;;6.72;;
44822;SDS011;51097;51.984;5.650;2022-12-07T04:07:21;9.95;;;6.05;;
44822;SDS011;51097;51.984;5.650;2022-12-07T04:09:46;10.15;;;7.13;;
44822;SDS011;51097;51.984;5.650;2022-12-07T04:12:12;9.30;;;7.05;;
44822;SDS011;51097;51.984;5.650;2022-12-07T04:14:38;7.85;;;6.35;;
44822;SDS011;51097;51.984;5.650;2022-12-07T04:17:03;9.30;;;6.47;;
44822;SDS011;51097;51.984;5.650;2022-12-07T04:19:30;8.98;;;6.13;;
44822;SDS011;51097;51.984;5.650;2022-12-07T04:21:57;7.25;;;6.32;;
44822;SDS011;51097;51.984;5.650;2022-12-07T04:24:24;8.02;;;6.30;;
44822;SDS011;51097;51.984;5.650;2022-12-07T04:26:50;8.55;;;5.88;;
44822;SDS011;51097;51.984;5.650;2022-12-07T04:29:16;9.23;;;6.93;;
44822;SDS011;51097;51.984;5.650;2022-12-07T04:31:43;9.77;;;6.57;;
44822;SDS011;51097;51.984;5.650;2022-12-07T04:34:09;8.60;;;5.57;;
44822;SDS011;51097;51.984;5.650;2022-12-07T04:36:35;10.15;;;6.05;;
44822;SDS011;51097;51.984;5.650;2022-12-07T04:39:02;14.68;;;6.72;;
44822;SDS011;51097;51.984;5.650;2022-12-07T04:41:29;10.65;;;7.03;;
44822;SDS011;51097;51.984;5.650;2022-12-07T04:43:55;8.48;;;5.95;;
44822;SDS011;51097;51.984;5.650;2022-12-07T04:46:22;10.85;;;7.03;;
44822;SDS011;51097;51.984;5.650;2022-12-07T04:48:49;10.38;;;6.22;;
44822;SDS011;51097;51.984;5.650;2022-12-07T04:51:15;8.27;;;5.60;;
44822;SDS011;51097;51.984;5.650;2022-12-07T04:53:51;12.63;;;6.78;;
44822;SDS011;51097;51.984;5.650;2022-12-07T04:56:17;16.80;;;7.38;;
44822;SDS011;51097;51.984;5.650;2022-12-07T04:58:44;10.50;;;6.30;;
44822;SDS011;51097;51.984;5.650;2022-12-07T05:01:11;12.00;;;7.35;;
44822;SDS011;51097;51.984;5.650;2022-12-07T05:03:37;8.05;;;6.15;;
44822;SDS011;51097;51.984;5.650;2022-12-07T05:06:04;11.55;;;7.10;;
44822;SDS011;51097;51.984;5.650;2022-12-07T05:08:31;6.90;;;5.93;;
44822;SDS011;51097;51.984;5.650;2022-12-07T05:10:57;9.48;;;8.25;;
44822;SDS011;51097;51.984;5.650;2022-12-07T05:13:23;12.48;;;6.90;;
44822;SDS011;51097;51.984;5.650;2022-12-07T05:15:49;9.10;;;6.38;;
44822;SDS011;51097;51.984;5.650;2022-12-07T05:18:14;13.40;;;6.80;;
44822;SDS011;51097;51.984;5.650;2022-12-07T05:20:40;9.20;;;6.97;;
44822;SDS011;51097;51.984;5.650;2022-12-07T05:23:07;13.70;;;6.10;;
44822;SDS011;51097;51.984;5.650;2022-12-07T05:25:32;12.02;;;6.70;;
44822;SDS011;51097;51.984;5.650;2022-12-07T05:27:58;9.35;;;6.25;;
44822;SDS011;51097;51.984;5.650;2022-12-07T05:30:24;9.52;;;5.63;;
44822;SDS011;51097;51.984;5.650;2022-12-07T05:32:50;8.02;;;5.82;;
44822;SDS011;51097;51.984;5.650;2022-12-07T05:35:16;10.10;;;5.55;;
44822;SDS011;51097;51.984;5.650;2022-12-07T05:37:42;7.68;;;5.40;;
44822;SDS011;51097;51.984;5.650;2022-12-07T05:40:09;10.57;;;5.40;;
44822;SDS011;51097;51.984;5.650;2022-12-07T05:42:35;9.52;;;4.88;;
44822;SDS011;51097;51.984;5.650;2022-12-07T05:45:00;8.60;;;5.72;;
44822;SDS011;51097;51.984;5.650;2022-12-07T05:47:26;8.18;;;3.67;;
44822;SDS011;51097;51.984;5.650;2022-12-07T05:49:52;7.05;;;4.28;;
44822;SDS011;51097;51.984;5.650;2022-12-07T05:52:17;5.43;;;4.60;;
44822;SDS011;51097;51.984;5.650;2022-12-07T05:54:43;6.95;;;3.88;;
44822;SDS011;51097;51.984;5.650;2022-12-07T05:57:09;8.38;;;5.32;;
44822;SDS011;51097;51.984;5.650;2022-12-07T05:59:34;7.22;;;4.40;;
44822;SDS011;51097;51.984;5.650;2022-12-07T06:02:05;5.45;;;4.38;;
44822;SDS011;51097;51.984;5.650;2022-12-07T06:04:33;12.20;;;4.82;;
44822;SDS011;51097;51.984;5.650;2022-12-07T06:07:00;8.52;;;4.75;;
44822;SDS011;51097;51.984;5.650;2022-12-07T06:09:27;7.05;;;4.55;;
44822;SDS011;51097;51.984;5.650;2022-12-07T06:11:53;8.35;;;6.35;;
44822;SDS011;51097;51.984;5.650;2022-12-07T06:14:38;9.95;;;5.35;;
44822;SDS011;51097;51.984;5.650;2022-12-07T06:17:04;8.90;;;4.50;;
44822;SDS011;51097;51.984;5.650;2022-12-07T06:19:30;7.15;;;4.85;;
44822;SDS011;51097;51.984;5.650;2022-12-07T06:21:55;7.25;;;4.75;;
44822;SDS011;51097;51.984;5.650;2022-12-07T06:24:21;6.85;;;4.78;;
44822;SDS011;51097;51.984;5.650;2022-12-07T06:26:50;5.50;;;4.47;;
44822;SDS011;51097;51.984;5.650;2022-12-07T06:29:16;12.60;;;5.10;;
44822;SDS011;51097;51.984;5.650;2022-12-07T06:31:50;10.43;;;4.50;;
44822;SDS011;51097;51.984;5.650;2022-12-07T06:34:17;5.88;;;4.60;;
44822;SDS011;51097;51.984;5.650;2022-12-07T06:36:45;8.30;;;5.07;;
44822;SDS011;51097;51.984;5.650;2022-12-07T06:39:16;10.77;;;4.88;;
44822;SDS011;51097;51.984;5.650;2022-12-07T06:41:48;10.55;;;3.97;;
44822;SDS011;51097;51.984;5.650;2022-12-07T06:44:20;8.65;;;3.75;;
44822;SDS011;51097;51.984;5.650;2022-12-07T06:46:51;14.05;;;3.92;;
44822;SDS011;51097;51.984;5.650;2022-12-07T06:49:17;8.52;;;3.05;;
44822;SDS011;51097;51.984;5.650;2022-12-07T06:51:45;9.05;;;3.75;;
44822;SDS011;51097;51.984;5.650;2022-12-07T06:54:11;9.35;;;3.22;;
44822;SDS011;51097;51.984;5.650;2022-12-07T06:56:38;6.63;;;3.42;;
44822;SDS011;51097;51.984;5.650;2022-12-07T06:59:05;3.72;;;3.15;;
44822;SDS011;51097;51.984;5.650;2022-12-07T07:01:33;10.32;;;3.35;;
44822;SDS011;51097;51.984;5.650;2022-12-07T07:03:59;6.28;;;2.72;;
44822;SDS011;51097;51.984;5.650;2022-12-07T07:06:26;10.85;;;3.35;;
44822;SDS011;51097;51.984;5.650;2022-12-07T07:08:51;12.95;;;3.35;;
44822;SDS011;51097;51.984;5.650;2022-12-07T07:11:17;5.03;;;3.22;;
44822;SDS011;51097;51.984;5.650;2022-12-07T07:13:43;9.82;;;3.50;;
44822;SDS011;51097;51.984;5.650;2022-12-07T07:16:09;10.27;;;3.67;;
44822;SDS011;51097;51.984;5.650;2022-12-07T07:18:37;7.03;;;3.17;;
44822;SDS011;51097;51.984;5.650;2022-12-07T07:21:03;6.72;;;3.15;;
44822;SDS011;51097;51.984;5.650;2022-12-07T07:23:29;10.40;;;3.88;;
44822;SDS011;51097;51.984;5.650;2022-12-07T07:25:54;10.93;;;3.70;;
44822;SDS011;51097;51.984;5.650;2022-12-07T07:28:20;8.68;;;4.07;;
44822;SDS011;51097;51.984;5.650;2022-12-07T07:30:46;7.20;;;3.20;;
44822;SDS011;51097;51.984;5.650;2022-12-07T07:33:12;7.18;;;3.40;;
44822;SDS011;51097;51.984;5.650;2022-12-07T07:35:37;6.45;;;3.55;;
44822;SDS011;51097;51.984;5.650;2022-12-07T07:38:04;6.70;;;2.90;;
44822;SDS011;51097;51.984;5.650;2022-12-07T07:40:29;6.18;;;3.00;;
44822;SDS011;51097;51.984;5.650;2022-12-07T07:42:55;6.07;;;2.97;;
44822;SDS011;51097;51.984;5.650;2022-12-07T07:45:22;4.97;;;3.40;;
44822;SDS011;51097;51.984;5.650;2022-12-07T07:47:49;6.53;;;3.58;;
44822;SDS011;51097;51.984;5.650;2022-12-07T07:50:15;5.70;;;2.55;;
44822;SDS011;51097;51.984;5.650;2022-12-07T07:52:41;4.90;;;3.10;;
44822;SDS011;51097;51.984;5.650;2022-12-07T07:55:07;5.18;;;3.30;;
44822;SDS011;51097;51.984;5.650;2022-12-07T07:57:36;11.18;;;3.70;;
44822;SDS011;51097;51.984;5.650;2022-12-07T08:00:03;5.38;;;4.25;;
44822;SDS011;51097;51.984;5.650;2022-12-07T08:02:32;7.77;;;3.90;;
44822;SDS011;51097;51.984;5.650;2022-12-07T08:04:57;13.07;;;3.80;;
44822;SDS011;51097;51.984;5.650;2022-12-07T08:07:23;5.38;;;3.20;;
44822;SDS011;51097;51.984;5.650;2022-12-07T08:09:48;4.72;;;3.55;;
44822;SDS011;51097;51.984;5.650;2022-12-07T08:12:14;5.50;;;3.33;;
44822;SDS011;51097;51.984;5.650;2022-12-07T08:14:39;6.55;;;3.40;;
44822;SDS011;51097;51.984;5.650;2022-12-07T08:17:06;8.07;;;4.07;;
44822;SDS011;51097;51.984;5.650;2022-12-07T08:19:31;13.98;;;5.53;;
44822;SDS011;51097;51.984;5.650;2022-12-07T08:21:58;8.52;;;4.40;;
44822;SDS011;51097;51.984;5.650;2022-12-07T08:24:23;9.23;;;5.28;;
44822;SDS011;51097;51.984;5.650;2022-12-07T08:26:50;9.65;;;4.63;;
44822;SDS011;51097;51.984;5.650;2022-12-07T08:29:15;11.80;;;5.13;;
44822;SDS011;51097;51.984;5.650;2022-12-07T08:31:41;4.95;;;3.97;;
44822;SDS011;51097;51.984;5.650;2022-12-07T08:34:07;14.40;;;4.88;;
44822;SDS011;51097;51.984;5.650;2022-12-07T08:36:32;13.02;;;4.63;;
44822;SDS011;51097;51.984;5.650;2022-12-07T08:38:58;7.90;;;4.72;;
44822;SDS011;51097;51.984;5.650;2022-12-07T08:41:23;8.40;;;3.92;;
44822;SDS011;51097;51.984;5.650;2022-12-07T08:43:50;6.20;;;3.92;;
44822;SDS011;51097;51.984;5.650;2022-12-07T08:48:46;6.57;;;4.28;;
44822;SDS011;51097;51.984;5.650;2022-12-07T08:51:14;8.18;;;4.18;;
44822;SDS011;51097;51.984;5.650;2022-12-07T08:53:40;14.43;;;4.57;;
44822;SDS011;51097;51.984;5.650;2022-12-07T08:56:07;8.40;;;5.43;;
44822;SDS011;51097;51.984;5.650;2022-12-07T08:58:33;7.00;;;4.68;;
44822;SDS011;51097;51.984;5.650;2022-12-07T09:01:00;8.13;;;4.32;;
44822;SDS011;51097;51.984;5.650;2022-12-07T09:03:26;10.35;;;4.43;;
44822;SDS011;51097;51.984;5.650;2022-12-07T09:05:52;8.63;;;4.43;;
44822;SDS011;51097;51.984;5.650;2022-12-07T09:08:19;7.72;;;3.78;;
44822;SDS011;51097;51.984;5.650;2022-12-07T09:10:46;11.32;;;3.78;;
44822;SDS011;51097;51.984;5.650;2022-12-07T09:13:12;8.10;;;3.67;;
44822;SDS011;51097;51.984;5.650;2022-12-07T09:15:38;10.25;;;3.55;;
44822;SDS011;51097;51.984;5.650;2022-12-07T09:18:03;9.15;;;3.10;;
44822;SDS011;51097;51.984;5.650;2022-12-07T09:20:29;10.50;;;3.78;;
44822;SDS011;51097;51.984;5.650;2022-12-07T09:22:54;7.85;;;3.50;;
44822;SDS011;51097;51.984;5.650;2022-12-07T09:25:20;12.30;;;4.45;;
44822;SDS011;51097;51.984;5.650;2022-12-07T09:27:46;6.25;;;3.05;;
44822;SDS011;51097;51.984;5.650;2022-12-07T09:30:12;6.63;;;3.60;;
44822;SDS011;51097;51.984;5.650;2022-12-07T09:32:37;13.20;;;3.42;;
44822;SDS011;51097;51.984;5.650;2022-12-07T09:35:03;6.95;;;2.78;;
44822;SDS011;51097;51.984;5.650;2022-12-07T09:37:28;7.28;;;3.08;;
44822;SDS011;51097;51.984;5.650;2022-12-07T09:39:55;7.35;;;2.70;;
44822;SDS011;51097;51.984;5.650;2022-12-07T09:44:58;8.85;;;3.17;;
44822;SDS011;51097;51.984;5.650;2022-12-07T09:47:25;9.07;;;3.47;;
44822;SDS011;51097;51.984;5.650;2022-12-07T09:49:52;5.72;;;3.25;;
44822;SDS011;51097;51.984;5.650;2022-12-07T09:52:26;7.55;;;3.25;;
44822;SDS011;51097;51.984;5.650;2022-12-07T09:54:53;6.05;;;3.17;;
44822;SDS011;51097;51.984;5.650;2022-12-07T09:57:29;6.28;;;2.85;;
44822;SDS011;51097;51.984;5.650;2022-12-07T09:59:59;7.13;;;3.25;;
44822;SDS011;51097;51.984;5.650;2022-12-07T10:04:59;8.88;;;3.50;;
44822;SDS011;51097;51.984;5.650;2022-12-07T10:07:25;12.23;;;3.80;;
44822;SDS011;51097;51.984;5.650;2022-12-07T10:09:51;13.05;;;4.40;;
44822;SDS011;51097;51.984;5.650;2022-12-07T10:12:16;7.55;;;3.42;;
44822;SDS011;51097;51.984;5.650;2022-12-07T10:14:53;9.50;;;3.70;;
44822;SDS011;51097;51.984;5.650;2022-12-07T10:17:35;12.85;;;3.72;;
44822;SDS011;51097;51.984;5.650;2022-12-07T10:20:13;11.02;;;3.78;;
44822;SDS011;51097;51.984;5.650;2022-12-07T10:25:25;11.68;;;3.35;;
44822;SDS011;51097;51.984;5.650;2022-12-07T10:28:10;14.70;;;3.63;;
44822;SDS011;51097;51.984;5.650;2022-12-07T10:30:55;6.70;;;3.00;;
44822;SDS011;51097;51.984;5.650;2022-12-07T10:38:46;8.70;;;3.17;;
44822;SDS011;51097;51.984;5.650;2022-12-07T10:41:16;6.97;;;2.95;;
44822;SDS011;51097;51.984;5.650;2022-12-07T10:43:49;7.95;;;3.03;;
44822;SDS011;51097;51.984;5.650;2022-12-07T10:51:51;7.97;;;2.95;;
44822;SDS011;51097;51.984;5.650;2022-12-07T10:54:44;8.13;;;3.03;;
44822;SDS011;51097;51.984;5.650;2022-12-07T11:00:25;8.35;;;3.90;;
44822;SDS011;51097;51.984;5.650;2022-12-07T11:03:25;7.10;;;2.65;;
44822;SDS011;51097;51.984;5.650;2022-12-07T11:09:21;6.20;;;2.50;;
44822;SDS011;51097;51.984;5.650;2022-12-07T11:12:09;7.30;;;2.58;;
44822;SDS011;51097;51.984;5.650;2022-12-07T11:15:01;5.25;;;2.50;;
44822;SDS011;51097;51.984;5.650;2022-12-07T11:23:03;9.32;;;2.17;;
44822;SDS011;51097;51.984;5.650;2022-12-07T11:25:59;8.45;;;2.83;;
44822;SDS011;51097;51.984;5.650;2022-12-07T11:31:11;6.47;;;2.67;;
44822;SDS011;51097;51.984;5.650;2022-12-07T11:33:57;7.45;;;3.17;;
44822;SDS011;51097;51.984;5.650;2022-12-07T11:36:38;11.45;;;3.00;;
44822;SDS011;51097;51.984;5.650;2022-12-07T11:39:28;12.85;;;3.35;;
44822;SDS011;51097;51.984;5.650;2022-12-07T11:42:20;7.18;;;2.75;;
44822;SDS011;51097;51.984;5.650;2022-12-07T11:44:50;7.97;;;3.78;;
44822;SDS011;51097;51.984;5.650;2022-12-07T11:47:35;4.53;;;3.15;;
44822;SDS011;51097;51.984;5.650;2022-12-07T11:55:42;7.03;;;2.60;;
44822;SDS011;51097;51.984;5.650;2022-12-07T11:58:22;9.75;;;2.60;;
44822;SDS011;51097;51.984;5.650;2022-12-07T12:03:49;4.97;;;2.33;;
44822;SDS011;51097;51.984;5.650;2022-12-07T12:06:17;7.82;;;2.85;;
44822;SDS011;51097;51.984;5.650;2022-12-07T12:08:49;10.05;;;3.33;;
44822;SDS011;51097;51.984;5.650;2022-12-07T12:14:01;4.15;;;3.30;;
44822;SDS011;51097;51.984;5.650;2022-12-07T12:16:56;8.38;;;3.47;;
44822;SDS011;51097;51.984;5.650;2022-12-07T12:19:36;6.82;;;3.63;;
44822;SDS011;51097;51.984;5.650;2022-12-07T12:22:17;8.15;;;4.57;;
44822;SDS011;51097;51.984;5.650;2022-12-07T12:24:45;6.03;;;3.30;;
44822;SDS011;51097;51.984;5.650;2022-12-07T12:27:26;9.55;;;3.63;;
44822;SDS011;51097;51.984;5.650;2022-12-07T12:29:56;6.17;;;3.27;;
44822;SDS011;51097;51.984;5.650;2022-12-07T12:32:29;3.95;;;2.20;;
44822;SDS011;51097;51.984;5.650;2022-12-07T12:35:22;7.15;;;2.53;;
44822;SDS011;51097;51.984;5.650;2022-12-07T12:38:24;6.63;;;2.90;;
44822;SDS011;51097;51.984;5.650;2022-12-07T12:40:53;6.05;;;2.50;;
44822;SDS011;51097;51.984;5.650;2022-12-07T12:51:41;5.38;;;1.60;;
44822;SDS011;51097;51.984;5.650;2022-12-07T12:54:19;5.93;;;1.20;;
44822;SDS011;51097;51.984;5.650;2022-12-07T12:56:48;5.18;;;1.75;;
44822;SDS011;51097;51.984;5.650;2022-12-07T12:59:27;5.40;;;1.30;;
44822;SDS011;51097;51.984;5.650;2022-12-07T13:04:56;9.90;;;2.30;;
44822;SDS011;51097;51.984;5.650;2022-12-07T13:20:52;4.10;;;1.20;;
44822;SDS011;51097;51.984;5.650;2022-12-07T13:23:29;5.80;;;1.40;;
44822;SDS011;51097;51.984;5.650;2022-12-07T13:31:42;5.80;;;1.63;;
44822;SDS011;51097;51.984;5.650;2022-12-07T13:36:57;3.88;;;1.33;;
44822;SDS011;51097;51.984;5.650;2022-12-07T13:39:27;7.45;;;1.88;;
44822;SDS011;51097;51.984;5.650;2022-12-07T13:41:57;6.60;;;2.28;;
44822;SDS011;51097;51.984;5.650;2022-12-07T13:44:25;5.63;;;1.40;;
44822;SDS011;51097;51.984;5.650;2022-12-07T13:46:57;3.33;;;1.27;;
44822;SDS011;51097;51.984;5.650;2022-12-07T13:49:30;4.60;;;1.50;;
44822;SDS011;51097;51.984;5.650;2022-12-07T13:52:11;4.43;;;1.90;;
44822;SDS011;51097;51.984;5.650;2022-12-07T13:57:25;5.63;;;1.80;;
44822;SDS011;51097;51.984;5.650;2022-12-07T13:59:52;5.70;;;1.65;;
44822;SDS011;51097;51.984;5.650;2022-12-07T14:02:19;6.47;;;1.85;;
44822;SDS011;51097;51.984;5.650;2022-12-07T14:05:05;3.00;;;1.02;;
44822;SDS011;51097;51.984;5.650;2022-12-07T14:07:48;1.23;;;0.80;;
44822;SDS011;51097;51.984;5.650;2022-12-07T14:10:27;2.33;;;0.65;;
44822;SDS011;51097;51.984;5.650;2022-12-07T14:12:57;4.88;;;1.17;;
44822;SDS011;51097;51.984;5.650;2022-12-07T14:15:33;3.20;;;0.52;;
44822;SDS011;51097;51.984;5.650;2022-12-07T14:18:00;3.03;;;0.60;;
44822;SDS011;51097;51.984;5.650;2022-12-07T14:22:58;1.95;;;1.08;;
44822;SDS011;51097;51.984;5.650;2022-12-07T14:25:27;4.55;;;0.73;;
44822;SDS011;51097;51.984;5.650;2022-12-07T14:27:59;0.98;;;0.55;;
44822;SDS011;51097;51.984;5.650;2022-12-07T14:30:30;2.47;;;1.05;;
44822;SDS011;51097;51.984;5.650;2022-12-07T14:32:59;1.02;;;0.55;;
44822;SDS011;51097;51.984;5.650;2022-12-07T14:35:27;4.22;;;1.30;;
44822;SDS011;51097;51.984;5.650;2022-12-07T14:37:53;4.70;;;1.02;;
44822;SDS011;51097;51.984;5.650;2022-12-07T14:40:23;6.70;;;1.13;;
44822;SDS011;51097;51.984;5.650;2022-12-07T14:42:56;3.00;;;1.42;;
44822;SDS011;51097;51.984;5.650;2022-12-07T14:45:25;5.05;;;2.05;;
44822;SDS011;51097;51.984;5.650;2022-12-07T14:47:51;4.70;;;2.30;;
44822;SDS011;51097;51.984;5.650;2022-12-07T14:50:18;6.07;;;2.35;;
44822;SDS011;51097;51.984;5.650;2022-12-07T14:55:29;8.43;;;2.67;;
44822;SDS011;51097;51.984;5.650;2022-12-07T14:57:56;4.75;;;3.05;;
44822;SDS011;51097;51.984;5.650;2022-12-07T15:00:23;6.18;;;3.78;;
44822;SDS011;51097;51.984;5.650;2022-12-07T15:02:49;5.88;;;3.70;;
44822;SDS011;51097;51.984;5.650;2022-12-07T15:05:16;12.40;;;4.45;;
44822;SDS011;51097;51.984;5.650;2022-12-07T15:07:42;5.55;;;3.75;;
44822;SDS011;51097;51.984;5.650;2022-12-07T15:10:19;7.70;;;4.22;;
44822;SDS011;51097;51.984;5.650;2022-12-07T15:13:00;7.53;;;4.20;;
44822;SDS011;51097;51.984;5.650;2022-12-07T15:15:46;10.63;;;5.75;;
44822;SDS011;51097;51.984;5.650;2022-12-07T15:18:13;5.70;;;3.03;;
44822;SDS011;51097;51.984;5.650;2022-12-07T15:20:38;5.18;;;2.45;;
44822;SDS011;51097;51.984;5.650;2022-12-07T15:23:04;6.18;;;2.83;;
44822;SDS011;51097;51.984;5.650;2022-12-07T15:25:30;4.93;;;3.25;;
44822;SDS011;51097;51.984;5.650;2022-12-07T15:27:56;5.63;;;2.40;;
44822;SDS011;51097;51.984;5.650;2022-12-07T15:30:21;5.55;;;2.67;;
44822;SDS011;51097;51.984;5.650;2022-12-07T15:32:50;5.85;;;2.83;;
44822;SDS011;51097;51.984;5.650;2022-12-07T15:35:16;6.50;;;2.20;;
44822;SDS011;51097;51.984;5.650;2022-12-07T15:37:42;5.82;;;2.50;;
44822;SDS011;51097;51.984;5.650;2022-12-07T15:40:08;5.53;;;1.88;;
44822;SDS011;51097;51.984;5.650;2022-12-07T15:42:37;4.68;;;2.10;;
44822;SDS011;51097;51.984;5.650;2022-12-07T15:45:04;8.05;;;2.80;;
44822;SDS011;51097;51.984;5.650;2022-12-07T15:47:34;6.55;;;2.33;;
44822;SDS011;51097;51.984;5.650;2022-12-07T15:50:02;5.43;;;2.20;;
44822;SDS011;51097;51.984;5.650;2022-12-07T15:52:30;4.80;;;2.20;;
44822;SDS011;51097;51.984;5.650;2022-12-07T15:54:56;6.68;;;1.80;;
44822;SDS011;51097;51.984;5.650;2022-12-07T15:57:22;3.30;;;1.40;;
44822;SDS011;51097;51.984;5.650;2022-12-07T15:59:47;2.05;;;1.40;;
44822;SDS011;51097;51.984;5.650;2022-12-07T16:02:13;2.78;;;1.13;;
44822;SDS011;51097;51.984;5.650;2022-12-07T16:04:38;3.13;;;1.52;;
44822;SDS011;51097;51.984;5.650;2022-12-07T16:07:04;3.33;;;1.02;;
44822;SDS011;51097;51.984;5.650;2022-12-07T16:09:30;3.08;;;1.35;;
44822;SDS011;51097;51.984;5.650;2022-12-07T16:11:56;5.35;;;1.73;;
44822;SDS011;51097;51.984;5.650;2022-12-07T16:14:22;1.67;;;1.15;;
44822;SDS011;51097;51.984;5.650;2022-12-07T16:16:48;2.63;;;0.90;;
44822;SDS011;51097;51.984;5.650;2022-12-07T16:19:13;4.13;;;1.20;;
44822;SDS011;51097;51.984;5.650;2022-12-07T16:21:39;7.60;;;2.30;;
44822;SDS011;51097;51.984;5.650;2022-12-07T16:24:05;2.83;;;1.60;;
44822;SDS011;51097;51.984;5.650;2022-12-07T16:26:31;4.95;;;2.05;;
44822;SDS011;51097;51.984;5.650;2022-12-07T16:28:57;3.92;;;2.03;;
44822;SDS011;51097;51.984;5.650;2022-12-07T16:31:23;4.68;;;2.20;;
44822;SDS011;51097;51.984;5.650;2022-12-07T16:33:55;3.65;;;1.77;;
44822;SDS011;51097;51.984;5.650;2022-12-07T16:36:23;4.88;;;2.83;;
44822;SDS011;51097;51.984;5.650;2022-12-07T16:38:50;3.65;;;2.65;;
44822;SDS011;51097;51.984;5.650;2022-12-07T16:41:16;5.22;;;2.90;;
44822;SDS011;51097;51.984;5.650;2022-12-07T16:43:42;6.15;;;2.38;;
44822;SDS011;51097;51.984;5.650;2022-12-07T16:46:08;2.92;;;2.22;;
44822;SDS011;51097;51.984;5.650;2022-12-07T16:48:37;4.40;;;2.30;;
44822;SDS011;51097;51.984;5.650;2022-12-07T16:51:05;4.97;;;2.25;;
44822;SDS011;51097;51.984;5.650;2022-12-07T16:53:35;2.88;;;2.20;;
44822;SDS011;51097;51.984;5.650;2022-12-07T16:56:01;3.13;;;2.20;;
44822;SDS011;51097;51.984;5.650;2022-12-07T16:58:27;8.85;;;3.05;;
44822;SDS011;51097;51.984;5.650;2022-12-07T17:00:53;2.90;;;2.20;;
44822;SDS011;51097;51.984;5.650;2022-12-07T17:03:18;4.10;;;2.92;;